createdAt,value
2018-05-24T17:29:49.966Z,5.93
2018-05-24T17:32:19.159Z,6.87
2018-05-24T17:34:49.362Z,7.67
2018-05-24T17:37:17.773Z,7.70
2018-05-24T17:39:46.795Z,8.60
2018-05-24T17:42:15.173Z,9.83
2018-05-24T17:44:46.053Z,10.53
2018-05-24T17:47:14.517Z,8.97
2018-05-24T17:49:42.770Z,11.67
2018-05-24T17:52:16.459Z,14.23
2018-05-24T17:54:44.738Z,10.40
2018-05-24T17:57:13.990Z,12.90
2018-05-24T17:59:42.425Z,10.10
2018-05-24T18:02:11.716Z,9.30
2018-05-24T18:04:40.725Z,11.37
2018-05-24T18:07:09.077Z,12.13
2018-05-24T18:09:37.633Z,11.53
2018-05-24T18:12:06.114Z,12.07
2018-05-24T18:14:34.596Z,12.47
2018-05-24T18:17:02.861Z,12.37
2018-05-24T18:19:31.265Z,12.20
2018-05-24T18:22:01.069Z,12.30
2018-05-24T18:24:29.543Z,13.30
2018-05-24T18:26:58.118Z,13.23
2018-05-24T18:29:26.409Z,16.63
2018-05-24T18:31:56.822Z,18.37
2018-05-24T18:34:26.143Z,14.63
2018-05-24T18:36:54.890Z,13.93
2018-05-24T18:39:24.117Z,14.13
2018-05-24T18:41:52.491Z,15.73
2018-05-24T18:44:21.522Z,14.27
2018-05-24T18:46:50.550Z,16.17
2018-05-24T18:49:18.874Z,19.83
2018-05-24T18:51:49.133Z,17.43
2018-05-24T18:54:17.463Z,16.47
2018-05-24T18:56:46.793Z,17.33
2018-05-24T18:59:16.239Z,18.30
2018-05-24T19:01:44.497Z,17.27
2018-05-24T19:04:12.820Z,19.47
2018-05-24T19:06:42.152Z,19.60
2018-05-24T19:09:10.559Z,19.90
2018-05-24T19:11:39.218Z,20.20
2018-05-24T19:14:08.258Z,20.33
2018-05-24T19:16:36.694Z,21.30
2018-05-24T19:19:05.037Z,22.90
2018-05-24T19:21:33.514Z,23.87
2018-05-24T19:24:01.781Z,23.77
2018-05-24T19:26:30.263Z,24.17
2018-05-24T19:29:00.329Z,23.60
2018-05-24T19:31:31.445Z,25.70
2018-05-24T19:34:00.746Z,25.93
2018-05-24T19:36:29.896Z,26.00
2018-05-24T19:38:58.157Z,25.77
2018-05-24T19:41:27.413Z,27.87
2018-05-24T19:43:59.875Z,26.77
2018-05-24T19:46:28.168Z,28.43
2018-05-24T19:48:57.201Z,26.37
2018-05-24T19:51:25.820Z,27.80
2018-05-24T19:53:54.236Z,28.03
2018-05-24T19:56:23.523Z,28.80
2018-05-24T19:58:51.988Z,29.67
2018-05-24T20:01:20.329Z,29.70
2018-05-24T20:03:48.689Z,29.90
2018-05-24T20:06:18.047Z,35.00
2018-05-24T20:08:47.276Z,27.67
2018-05-24T20:11:16.299Z,26.53
2018-05-24T20:13:44.669Z,26.20
2018-05-24T20:16:14.600Z,27.73
2018-05-24T20:18:42.861Z,28.27
2018-05-24T20:21:11.333Z,29.90
2018-05-24T20:23:40.361Z,29.80
2018-05-24T20:26:08.685Z,29.07
2018-05-24T20:28:38.100Z,29.30
2018-05-24T20:31:06.369Z,28.07
2018-05-24T20:33:34.786Z,29.13
2018-05-24T20:36:03.149Z,28.27
2018-05-24T20:38:32.181Z,30.03
2018-05-24T20:41:01.417Z,30.87
2018-05-24T20:43:29.701Z,30.07
2018-05-24T20:46:00.029Z,29.70
2018-05-24T20:48:28.404Z,30.27
2018-05-24T20:50:57.779Z,27.90
2018-05-24T20:53:26.266Z,29.40
2018-05-24T20:55:54.521Z,30.60
2018-05-24T20:58:24.092Z,29.23
2018-05-24T21:00:52.352Z,34.07
2018-05-24T21:03:21.133Z,32.37
2018-05-24T21:05:49.533Z,34.30
2018-05-24T21:08:18.587Z,33.03
2018-05-24T21:10:46.841Z,30.33
2018-05-24T21:13:15.489Z,32.50
2018-05-24T21:15:44.127Z,30.80
2018-05-24T21:18:12.385Z,32.40
2018-05-24T21:20:40.860Z,32.03
2018-05-24T21:23:09.900Z,32.30
2018-05-24T21:25:38.394Z,32.07
2018-05-24T21:28:06.679Z,31.53
2018-05-24T21:30:34.937Z,34.63
2018-05-24T21:33:03.208Z,34.07
2018-05-24T21:35:31.968Z,36.20
2018-05-24T21:38:00.662Z,35.97
2018-05-24T21:40:29.237Z,32.73
2018-05-24T21:42:57.673Z,34.67
2018-05-24T21:45:26.703Z,34.77
2018-05-24T21:47:55.433Z,35.67
2018-05-24T21:50:23.708Z,33.77
2018-05-24T21:52:51.970Z,35.80
2018-05-24T21:55:20.226Z,37.10
2018-05-24T21:57:48.624Z,36.77
2018-05-24T22:00:18.642Z,44.20
2018-05-24T22:02:46.881Z,38.40
2018-05-24T22:05:15.170Z,36.30
2018-05-24T22:07:43.445Z,40.50
2018-05-24T22:10:11.703Z,52.77
2018-05-24T22:12:39.979Z,38.43
2018-05-24T22:15:08.237Z,41.50
2018-05-24T22:17:36.504Z,39.17
2018-05-24T22:20:05.630Z,39.43
2018-05-24T22:22:33.877Z,38.90
2018-05-24T22:25:02.140Z,44.10
2018-05-24T22:27:30.428Z,39.60
2018-05-24T22:29:59.450Z,37.97
2018-05-24T22:32:27.699Z,78.63
2018-05-24T22:34:55.981Z,73.83
2018-05-24T22:37:24.248Z,50.77
2018-05-24T22:39:53.275Z,40.60
2018-05-24T22:42:21.897Z,38.20
2018-05-24T22:44:50.391Z,36.20
2018-05-24T22:47:18.770Z,31.70
2018-05-24T22:49:47.327Z,30.47
2018-05-24T22:52:15.577Z,30.87
2018-05-24T22:54:43.846Z,32.83
2018-05-24T22:57:12.352Z,28.27
2018-05-24T22:59:40.609Z,32.77
2018-05-24T23:02:08.869Z,31.27
2018-05-24T23:04:37.964Z,31.30
2018-05-24T23:07:06.220Z,30.83
2018-05-24T23:09:34.477Z,31.27
2018-05-24T23:12:02.764Z,33.63
2018-05-24T23:14:31.020Z,33.53
2018-05-24T23:16:59.270Z,32.00
2018-05-24T23:19:27.543Z,32.93
2018-05-24T23:21:56.611Z,34.67
2018-05-24T23:24:24.869Z,35.20
2018-05-24T23:26:53.347Z,32.97
2018-05-24T23:29:21.592Z,34.73
2018-05-24T23:31:49.844Z,34.10
2018-05-24T23:34:18.119Z,31.07
2018-05-24T23:36:47.135Z,39.33
2018-05-24T23:39:15.387Z,34.43
2018-05-24T23:41:43.945Z,36.30
2018-05-24T23:44:12.204Z,29.90
2018-05-24T23:46:40.451Z,25.80
2018-05-24T23:49:09.036Z,24.30
2018-05-24T23:51:38.316Z,22.37
2018-05-24T23:54:06.606Z,23.70
2018-05-24T23:56:35.050Z,20.83
2018-05-24T23:59:03.416Z,20.50
